sensor_id;sensor_type;location;lat;lon;timestamp;P1;durP1;ratioP1;P2;durP2;ratioP2
30723;SDS011;17473;52.286;20.930;2023-04-01T00:01:05;16.25;;;10.88;;
30723;SDS011;17473;52.286;20.930;2023-04-01T00:03:33;16.17;;;10.60;;
30723;SDS011;17473;52.286;20.930;2023-04-01T00:06:01;14.98;;;10.48;;
30723;SDS011;17473;52.286;20.930;2023-04-01T00:08:29;16.85;;;10.50;;
30723;SDS011;17473;52.286;20.930;2023-04-01T00:10:56;17.27;;;11.18;;
30723;SDS011;17473;52.286;20.930;2023-04-01T00:13:24;18.48;;;10.85;;
30723;SDS011;17473;52.286;20.930;2023-04-01T00:15:53;18.67;;;11.80;;
30723;SDS011;17473;52.286;20.930;2023-04-01T00:18:21;19.27;;;11.45;;
30723;SDS011;17473;52.286;20.930;2023-04-01T00:20:51;16.33;;;11.48;;
30723;SDS011;17473;52.286;20.930;2023-04-01T00:23:19;20.60;;;13.15;;
30723;SDS011;17473;52.286;20.930;2023-04-01T00:25:46;24.23;;;12.60;;
30723;SDS011;17473;52.286;20.930;2023-04-01T00:28:16;18.23;;;12.45;;
30723;SDS011;17473;52.286;20.930;2023-04-01T00:30:44;18.23;;;13.07;;
30723;SDS011;17473;52.286;20.930;2023-04-01T00:33:12;17.50;;;12.07;;
30723;SDS011;17473;52.286;20.930;2023-04-01T00:35:39;21.52;;;13.38;;
30723;SDS011;17473;52.286;20.930;2023-04-01T00:38:06;22.23;;;12.77;;
30723;SDS011;17473;52.286;20.930;2023-04-01T00:40:44;17.25;;;12.90;;
30723;SDS011;17473;52.286;20.930;2023-04-01T00:43:19;20.63;;;14.40;;
30723;SDS011;17473;52.286;20.930;2023-04-01T00:45:47;22.63;;;13.38;;
30723;SDS011;17473;52.286;20.930;2023-04-01T00:53:54;19.65;;;13.45;;
30723;SDS011;17473;52.286;20.930;2023-04-01T00:56:27;17.57;;;12.70;;
30723;SDS011;17473;52.286;20.930;2023-04-01T00:59:04;19.90;;;13.93;;
30723;SDS011;17473;52.286;20.930;2023-04-01T01:01:40;22.10;;;13.97;;
30723;SDS011;17473;52.286;20.930;2023-04-01T01:04:20;17.30;;;12.67;;
30723;SDS011;17473;52.286;20.930;2023-04-01T01:06:55;22.83;;;13.03;;
30723;SDS011;17473;52.286;20.930;2023-04-01T01:12:46;19.47;;;13.10;;
30723;SDS011;17473;52.286;20.930;2023-04-01T01:15:56;26.67;;;14.83;;
30723;SDS011;17473;52.286;20.930;2023-04-01T01:21:24;21.67;;;13.88;;
30723;SDS011;17473;52.286;20.930;2023-04-01T01:24:06;21.43;;;13.63;;
30723;SDS011;17473;52.286;20.930;2023-04-01T01:27:00;18.73;;;13.23;;
30723;SDS011;17473;52.286;20.930;2023-04-01T01:35:53;21.00;;;15.03;;
30723;SDS011;17473;52.286;20.930;2023-04-01T01:38:24;18.93;;;14.77;;
30723;SDS011;17473;52.286;20.930;2023-04-01T01:40:56;21.23;;;14.37;;
30723;SDS011;17473;52.286;20.930;2023-04-01T01:43:26;22.17;;;14.87;;
30723;SDS011;17473;52.286;20.930;2023-04-01T01:46:07;20.43;;;14.10;;
30723;SDS011;17473;52.286;20.930;2023-04-01T01:48:41;24.07;;;15.50;;
30723;SDS011;17473;52.286;20.930;2023-04-01T01:51:09;21.00;;;14.70;;
30723;SDS011;17473;52.286;20.930;2023-04-01T01:53:36;22.93;;;15.33;;
30723;SDS011;17473;52.286;20.930;2023-04-01T01:56:04;24.50;;;15.35;;
30723;SDS011;17473;52.286;20.930;2023-04-01T01:58:32;22.23;;;15.55;;
30723;SDS011;17473;52.286;20.930;2023-04-01T02:01:26;24.33;;;16.43;;
30723;SDS011;17473;52.286;20.930;2023-04-01T02:03:57;26.60;;;17.07;;
30723;SDS011;17473;52.286;20.930;2023-04-01T02:06:26;24.20;;;16.10;;
30723;SDS011;17473;52.286;20.930;2023-04-01T02:12:59;28.33;;;18.07;;
30723;SDS011;17473;52.286;20.930;2023-04-01T02:15:37;28.07;;;18.83;;
30723;SDS011;17473;52.286;20.930;2023-04-01T02:18:09;32.17;;;19.43;;
30723;SDS011;17473;52.286;20.930;2023-04-01T02:20:37;24.47;;;19.27;;
30723;SDS011;17473;52.286;20.930;2023-04-01T02:23:06;26.60;;;18.70;;
30723;SDS011;17473;52.286;20.930;2023-04-01T02:25:36;27.47;;;19.10;;
30723;SDS011;17473;52.286;20.930;2023-04-01T02:28:06;28.97;;;19.67;;
30723;SDS011;17473;52.286;20.930;2023-04-01T02:30:36;28.90;;;19.47;;
30723;SDS011;17473;52.286;20.930;2023-04-01T02:33:05;23.47;;;18.07;;
30723;SDS011;17473;52.286;20.930;2023-04-01T02:35:33;27.07;;;18.60;;
30723;SDS011;17473;52.286;20.930;2023-04-01T02:38:04;25.73;;;17.50;;
30723;SDS011;17473;52.286;20.930;2023-04-01T02:40:43;29.98;;;18.40;;
30723;SDS011;17473;52.286;20.930;2023-04-01T02:43:16;25.30;;;18.85;;
30723;SDS011;17473;52.286;20.930;2023-04-01T02:45:45;28.58;;;19.13;;
30723;SDS011;17473;52.286;20.930;2023-04-01T02:48:12;25.85;;;18.17;;
30723;SDS011;17473;52.286;20.930;2023-04-01T02:50:40;24.30;;;17.83;;
30723;SDS011;17473;52.286;20.930;2023-04-01T02:53:07;30.40;;;19.90;;
30723;SDS011;17473;52.286;20.930;2023-04-01T02:55:34;28.43;;;18.13;;
30723;SDS011;17473;52.286;20.930;2023-04-01T02:58:02;28.50;;;19.73;;
30723;SDS011;17473;52.286;20.930;2023-04-01T03:00:29;22.53;;;17.50;;
30723;SDS011;17473;52.286;20.930;2023-04-01T03:02:57;25.17;;;17.20;;
30723;SDS011;17473;52.286;20.930;2023-04-01T03:05:24;22.97;;;16.37;;
30723;SDS011;17473;52.286;20.930;2023-04-01T03:07:51;23.97;;;16.17;;
30723;SDS011;17473;52.286;20.930;2023-04-01T03:10:19;23.20;;;16.40;;
30723;SDS011;17473;52.286;20.930;2023-04-01T03:12:46;23.73;;;16.20;;
30723;SDS011;17473;52.286;20.930;2023-04-01T03:15:14;23.57;;;16.73;;
30723;SDS011;17473;52.286;20.930;2023-04-01T03:17:42;24.73;;;16.80;;
30723;SDS011;17473;52.286;20.930;2023-04-01T03:20:10;27.37;;;18.50;;
30723;SDS011;17473;52.286;20.930;2023-04-01T03:22:37;30.17;;;19.40;;
30723;SDS011;17473;52.286;20.930;2023-04-01T03:25:08;28.23;;;18.97;;
30723;SDS011;17473;52.286;20.930;2023-04-01T03:27:36;25.27;;;18.80;;
30723;SDS011;17473;52.286;20.930;2023-04-01T03:30:03;25.57;;;18.47;;
30723;SDS011;17473;52.286;20.930;2023-04-01T03:32:32;23.43;;;17.23;;
30723;SDS011;17473;52.286;20.930;2023-04-01T03:35:00;25.63;;;18.00;;
30723;SDS011;17473;52.286;20.930;2023-04-01T03:37:27;22.63;;;15.83;;
30723;SDS011;17473;52.286;20.930;2023-04-01T03:39:54;27.67;;;17.73;;
30723;SDS011;17473;52.286;20.930;2023-04-01T03:42:21;25.13;;;16.73;;
30723;SDS011;17473;52.286;20.930;2023-04-01T03:44:48;24.17;;;16.17;;
30723;SDS011;17473;52.286;20.930;2023-04-01T03:47:16;22.40;;;16.17;;
30723;SDS011;17473;52.286;20.930;2023-04-01T03:49:43;22.60;;;16.23;;
30723;SDS011;17473;52.286;20.930;2023-04-01T03:52:10;25.47;;;16.53;;
30723;SDS011;17473;52.286;20.930;2023-04-01T03:54:37;18.57;;;14.80;;
30723;SDS011;17473;52.286;20.930;2023-04-01T03:57:05;20.43;;;14.27;;
30723;SDS011;17473;52.286;20.930;2023-04-01T03:59:32;21.33;;;14.43;;
30723;SDS011;17473;52.286;20.930;2023-04-01T04:02:00;21.73;;;14.70;;
30723;SDS011;17473;52.286;20.930;2023-04-01T04:04:27;21.03;;;14.00;;
30723;SDS011;17473;52.286;20.930;2023-04-01T04:06:55;21.83;;;15.03;;
30723;SDS011;17473;52.286;20.930;2023-04-01T04:09:22;22.03;;;14.93;;
30723;SDS011;17473;52.286;20.930;2023-04-01T04:11:49;18.80;;;15.03;;
30723;SDS011;17473;52.286;20.930;2023-04-01T04:14:17;22.60;;;14.87;;
30723;SDS011;17473;52.286;20.930;2023-04-01T04:16:44;23.33;;;14.47;;
30723;SDS011;17473;52.286;20.930;2023-04-01T04:19:11;19.20;;;13.50;;
30723;SDS011;17473;52.286;20.930;2023-04-01T04:21:39;16.83;;;12.57;;
30723;SDS011;17473;52.286;20.930;2023-04-01T04:24:08;18.63;;;14.60;;
30723;SDS011;17473;52.286;20.930;2023-04-01T04:26:36;17.23;;;13.30;;
30723;SDS011;17473;52.286;20.930;2023-04-01T04:29:03;20.03;;;13.83;;
30723;SDS011;17473;52.286;20.930;2023-04-01T04:31:30;20.83;;;14.27;;
30723;SDS011;17473;52.286;20.930;2023-04-01T04:33:58;20.85;;;13.32;;
30723;SDS011;17473;52.286;20.930;2023-04-01T04:36:27;18.77;;;13.23;;
30723;SDS011;17473;52.286;20.930;2023-04-01T04:38:54;18.30;;;13.47;;
30723;SDS011;17473;52.286;20.930;2023-04-01T04:41:21;19.00;;;14.00;;
30723;SDS011;17473;52.286;20.930;2023-04-01T04:43:52;17.43;;;12.60;;
30723;SDS011;17473;52.286;20.930;2023-04-01T04:46:22;17.57;;;12.23;;
30723;SDS011;17473;52.286;20.930;2023-04-01T04:48:50;17.80;;;11.67;;
30723;SDS011;17473;52.286;20.930;2023-04-01T04:51:17;18.07;;;11.90;;
30723;SDS011;17473;52.286;20.930;2023-04-01T04:53:46;20.87;;;12.57;;
30723;SDS011;17473;52.286;20.930;2023-04-01T04:56:20;18.17;;;12.67;;
30723;SDS011;17473;52.286;20.930;2023-04-01T04:58:48;17.60;;;11.63;;
30723;SDS011;17473;52.286;20.930;2023-04-01T05:01:15;17.40;;;12.30;;
30723;SDS011;17473;52.286;20.930;2023-04-01T05:03:44;13.13;;;10.57;;
30723;SDS011;17473;52.286;20.930;2023-04-01T05:06:12;15.33;;;11.73;;
30723;SDS011;17473;52.286;20.930;2023-04-01T05:08:41;14.27;;;11.07;;
30723;SDS011;17473;52.286;20.930;2023-04-01T05:11:14;17.07;;;11.50;;
30723;SDS011;17473;52.286;20.930;2023-04-01T05:13:44;12.93;;;10.27;;
30723;SDS011;17473;52.286;20.930;2023-04-01T05:16:13;15.83;;;10.73;;
30723;SDS011;17473;52.286;20.930;2023-04-01T05:18:44;16.97;;;10.40;;
30723;SDS011;17473;52.286;20.930;2023-04-01T05:21:12;12.67;;;10.03;;
30723;SDS011;17473;52.286;20.930;2023-04-01T05:23:41;12.00;;;9.90;;
30723;SDS011;17473;52.286;20.930;2023-04-01T05:26:10;14.57;;;10.00;;
30723;SDS011;17473;52.286;20.930;2023-04-01T05:28:40;12.33;;;9.13;;
30723;SDS011;17473;52.286;20.930;2023-04-01T05:31:07;13.67;;;9.83;;
30723;SDS011;17473;52.286;20.930;2023-04-01T05:33:35;11.20;;;9.03;;
30723;SDS011;17473;52.286;20.930;2023-04-01T05:36:09;10.80;;;8.50;;
30723;SDS011;17473;52.286;20.930;2023-04-01T05:38:39;11.30;;;8.77;;
30723;SDS011;17473;52.286;20.930;2023-04-01T05:41:07;14.47;;;8.17;;
30723;SDS011;17473;52.286;20.930;2023-04-01T05:43:37;13.60;;;8.83;;
30723;SDS011;17473;52.286;20.930;2023-04-01T05:46:05;11.17;;;8.23;;
30723;SDS011;17473;52.286;20.930;2023-04-01T05:48:33;10.73;;;8.10;;
30723;SDS011;17473;52.286;20.930;2023-04-01T05:51:01;14.23;;;8.77;;
30723;SDS011;17473;52.286;20.930;2023-04-01T05:53:29;12.47;;;8.97;;
30723;SDS011;17473;52.286;20.930;2023-04-01T05:55:56;12.00;;;8.57;;
30723;SDS011;17473;52.286;20.930;2023-04-01T05:58:27;12.05;;;9.13;;
30723;SDS011;17473;52.286;20.930;2023-04-01T06:01:00;9.90;;;7.80;;
30723;SDS011;17473;52.286;20.930;2023-04-01T06:03:36;10.65;;;7.55;;
30723;SDS011;17473;52.286;20.930;2023-04-01T06:06:03;11.20;;;8.68;;
30723;SDS011;17473;52.286;20.930;2023-04-01T06:08:42;16.95;;;10.93;;
30723;SDS011;17473;52.286;20.930;2023-04-01T06:11:21;9.57;;;6.57;;
30723;SDS011;17473;52.286;20.930;2023-04-01T06:14:32;10.60;;;6.57;;
30723;SDS011;17473;52.286;20.930;2023-04-01T06:23:11;8.57;;;6.63;;
30723;SDS011;17473;52.286;20.930;2023-04-01T06:28:46;9.10;;;6.95;;
30723;SDS011;17473;52.286;20.930;2023-04-01T06:56:46;4.50;;;3.45;;
30723;SDS011;17473;52.286;20.930;2023-04-01T06:59:27;3.47;;;3.10;;
30723;SDS011;17473;52.286;20.930;2023-04-01T07:01:59;4.95;;;3.28;;
30723;SDS011;17473;52.286;20.930;2023-04-01T07:04:53;5.15;;;3.33;;
30723;SDS011;17473;52.286;20.930;2023-04-01T07:07:35;6.00;;;2.80;;
30723;SDS011;17473;52.286;20.930;2023-04-01T07:10:19;6.93;;;3.25;;
30723;SDS011;17473;52.286;20.930;2023-04-01T07:12:57;3.00;;;2.70;;
30723;SDS011;17473;52.286;20.930;2023-04-01T07:15:30;4.20;;;2.70;;
30723;SDS011;17473;52.286;20.930;2023-04-01T07:18:11;2.58;;;2.38;;
30723;SDS011;17473;52.286;20.930;2023-04-01T07:20:54;4.22;;;2.90;;
30723;SDS011;17473;52.286;20.930;2023-04-01T07:23:24;4.07;;;3.35;;
30723;SDS011;17473;52.286;20.930;2023-04-01T07:26:16;4.03;;;3.05;;
30723;SDS011;17473;52.286;20.930;2023-04-01T07:28:52;3.90;;;3.38;;
30723;SDS011;17473;52.286;20.930;2023-04-01T07:34:30;5.72;;;4.68;;
30723;SDS011;17473;52.286;20.930;2023-04-01T07:43:10;9.05;;;5.80;;
30723;SDS011;17473;52.286;20.930;2023-04-01T07:45:47;10.93;;;8.02;;
30723;SDS011;17473;52.286;20.930;2023-04-01T07:48:44;11.50;;;8.70;;
30723;SDS011;17473;52.286;20.930;2023-04-01T08:03:38;14.15;;;9.63;;
30723;SDS011;17473;52.286;20.930;2023-04-01T08:09:10;12.48;;;10.50;;
30723;SDS011;17473;52.286;20.930;2023-04-01T08:20:34;17.73;;;12.20;;
30723;SDS011;17473;52.286;20.930;2023-04-01T08:23:23;18.35;;;12.07;;
30723;SDS011;17473;52.286;20.930;2023-04-01T08:26:14;13.73;;;10.77;;
30723;SDS011;17473;52.286;20.930;2023-04-01T08:28:53;16.38;;;10.23;;
30723;SDS011;17473;52.286;20.930;2023-04-01T08:34:46;12.68;;;9.25;;
30723;SDS011;17473;52.286;20.930;2023-04-01T08:37:20;10.30;;;7.50;;
30723;SDS011;17473;52.286;20.930;2023-04-01T08:40:17;9.88;;;7.45;;
30723;SDS011;17473;52.286;20.930;2023-04-01T08:48:51;16.08;;;12.15;;
30723;SDS011;17473;52.286;20.930;2023-04-01T08:51:48;11.18;;;8.80;;
30723;SDS011;17473;52.286;20.930;2023-04-01T09:00:53;9.98;;;7.60;;
30723;SDS011;17473;52.286;20.930;2023-04-01T09:24:34;7.97;;;6.47;;
30723;SDS011;17473;52.286;20.930;2023-04-01T09:36:33;6.43;;;5.50;;
30723;SDS011;17473;52.286;20.930;2023-04-01T09:59:47;7.30;;;5.05;;
30723;SDS011;17473;52.286;20.930;2023-04-01T10:49:41;4.65;;;2.80;;
30723;SDS011;17473;52.286;20.930;2023-04-01T11:22:51;5.43;;;3.30;;
30723;SDS011;17473;52.286;20.930;2023-04-01T11:38:02;5.25;;;2.97;;
30723;SDS011;17473;52.286;20.930;2023-04-01T11:43:38;3.10;;;2.08;;
30723;SDS011;17473;52.286;20.930;2023-04-01T11:46:34;3.17;;;2.22;;
30723;SDS011;17473;52.286;20.930;2023-04-01T11:52:35;2.53;;;2.13;;
30723;SDS011;17473;52.286;20.930;2023-04-01T11:59:01;2.90;;;1.73;;
30723;SDS011;17473;52.286;20.930;2023-04-01T12:04:50;4.13;;;1.42;;
30723;SDS011;17473;52.286;20.930;2023-04-01T12:08:10;2.92;;;1.50;;
30723;SDS011;17473;52.286;20.930;2023-04-01T12:13:59;4.15;;;1.70;;
30723;SDS011;17473;52.286;20.930;2023-04-01T12:20:01;3.03;;;1.40;;
30723;SDS011;17473;52.286;20.930;2023-04-01T12:22:46;2.15;;;1.20;;
30723;SDS011;17473;52.286;20.930;2023-04-01T12:32:16;1.63;;;0.90;;
30723;SDS011;17473;52.286;20.930;2023-04-01T12:35:02;1.48;;;0.90;;
30723;SDS011;17473;52.286;20.930;2023-04-01T12:49:48;3.47;;;0.98;;
30723;SDS011;17473;52.286;20.930;2023-04-01T12:52:52;1.45;;;1.10;;
30723;SDS011;17473;52.286;20.930;2023-04-01T12:56:09;1.63;;;1.00;;
30723;SDS011;17473;52.286;20.930;2023-04-01T12:59:07;1.65;;;1.42;;
30723;SDS011;17473;52.286;20.930;2023-04-01T13:04:48;4.68;;;1.42;;
30723;SDS011;17473;52.286;20.930;2023-04-01T13:07:46;3.13;;;2.08;;
30723;SDS011;17473;52.286;20.930;2023-04-01T13:14:14;11.70;;;5.18;;
30723;SDS011;17473;52.286;20.930;2023-04-01T13:23:14;4.22;;;2.28;;
30723;SDS011;17473;52.286;20.930;2023-04-01T13:26:29;4.70;;;2.30;;
30723;SDS011;17473;52.286;20.930;2023-04-01T13:29:38;4.40;;;2.85;;
30723;SDS011;17473;52.286;20.930;2023-04-01T13:38:01;3.70;;;2.30;;
30723;SDS011;17473;52.286;20.930;2023-04-01T13:43:39;4.82;;;2.20;;
30723;SDS011;17473;52.286;20.930;2023-04-01T13:52:32;3.17;;;2.00;;
30723;SDS011;17473;52.286;20.930;2023-04-01T14:04:44;3.17;;;2.75;;
30723;SDS011;17473;52.286;20.930;2023-04-01T14:11:17;2.88;;;2.20;;
30723;SDS011;17473;52.286;20.930;2023-04-01T14:17:33;2.30;;;2.10;;
30723;SDS011;17473;52.286;20.930;2023-04-01T14:20:22;5.40;;;3.15;;
30723;SDS011;17473;52.286;20.930;2023-04-01T14:50:46;2.75;;;2.42;;
30723;SDS011;17473;52.286;20.930;2023-04-01T14:53:28;5.32;;;2.85;;
30723;SDS011;17473;52.286;20.930;2023-04-01T14:56:00;4.57;;;2.65;;
30723;SDS011;17473;52.286;20.930;2023-04-01T15:04:14;4.97;;;3.05;;
30723;SDS011;17473;52.286;20.930;2023-04-01T15:07:02;6.20;;;3.53;;
30723;SDS011;17473;52.286;20.930;2023-04-01T15:28:24;3.55;;;3.25;;
30723;SDS011;17473;52.286;20.930;2023-04-01T15:31:14;6.25;;;2.85;;
30723;SDS011;17473;52.286;20.930;2023-04-01T15:34:18;5.07;;;2.72;;
30723;SDS011;17473;52.286;20.930;2023-04-01T15:37:29;5.68;;;3.10;;
30723;SDS011;17473;52.286;20.930;2023-04-01T15:42:59;3.40;;;2.00;;
30723;SDS011;17473;52.286;20.930;2023-04-01T15:57:26;3.53;;;2.30;;
30723;SDS011;17473;52.286;20.930;2023-04-01T16:00:31;2.97;;;2.00;;
30723;SDS011;17473;52.286;20.930;2023-04-01T16:20:40;5.10;;;2.50;;
30723;SDS011;17473;52.286;20.930;2023-04-01T16:31:59;5.33;;;2.40;;
30723;SDS011;17473;52.286;20.930;2023-04-01T16:34:58;3.00;;;2.20;;
30723;SDS011;17473;52.286;20.930;2023-04-01T17:03:28;6.40;;;2.60;;
30723;SDS011;17473;52.286;20.930;2023-04-01T17:06:15;3.27;;;2.73;;
30723;SDS011;17473;52.286;20.930;2023-04-01T17:09:18;9.87;;;5.20;;
30723;SDS011;17473;52.286;20.930;2023-04-01T17:12:10;9.87;;;5.40;;
30723;SDS011;17473;52.286;20.930;2023-04-01T17:18:10;5.50;;;4.27;;
30723;SDS011;17473;52.286;20.930;2023-04-01T17:20:50;5.90;;;4.57;;
30723;SDS011;17473;52.286;20.930;2023-04-01T17:23:58;6.80;;;4.50;;
30723;SDS011;17473;52.286;20.930;2023-04-01T17:26:56;6.33;;;4.40;;
30723;SDS011;17473;52.286;20.930;2023-04-01T17:30:17;5.03;;;4.40;;
30723;SDS011;17473;52.286;20.930;2023-04-01T17:35:59;9.90;;;4.87;;
30723;SDS011;17473;52.286;20.930;2023-04-01T17:41:42;7.97;;;4.77;;
30723;SDS011;17473;52.286;20.930;2023-04-01T17:49:37;6.17;;;4.87;;
30723;SDS011;17473;52.286;20.930;2023-04-01T18:15:35;7.33;;;5.20;;
30723;SDS011;17473;52.286;20.930;2023-04-01T18:24:12;7.50;;;5.83;;
30723;SDS011;17473;52.286;20.930;2023-04-01T18:27:30;9.17;;;6.03;;
30723;SDS011;17473;52.286;20.930;2023-04-01T18:33:00;10.80;;;6.60;;
30723;SDS011;17473;52.286;20.930;2023-04-01T18:38:53;9.43;;;6.80;;
30723;SDS011;17473;52.286;20.930;2023-04-01T18:41:25;12.47;;;7.10;;
30723;SDS011;17473;52.286;20.930;2023-04-01T18:50:15;10.23;;;7.30;;
30723;SDS011;17473;52.286;20.930;2023-04-01T18:56:11;9.27;;;7.03;;
30723;SDS011;17473;52.286;20.930;2023-04-01T19:05:29;9.53;;;6.47;;
30723;SDS011;17473;52.286;20.930;2023-04-01T19:32:57;10.83;;;6.73;;
30723;SDS011;17473;52.286;20.930;2023-04-01T19:35:48;9.77;;;6.97;;
30723;SDS011;17473;52.286;20.930;2023-04-01T19:38:30;9.23;;;6.40;;
30723;SDS011;17473;52.286;20.930;2023-04-01T19:43:57;8.23;;;5.60;;
30723;SDS011;17473;52.286;20.930;2023-04-01T19:49:41;7.57;;;5.60;;
30723;SDS011;17473;52.286;20.930;2023-04-01T19:52:35;10.57;;;5.93;;
30723;SDS011;17473;52.286;20.930;2023-04-01T20:00:53;8.03;;;5.57;;
30723;SDS011;17473;52.286;20.930;2023-04-01T20:09:00;8.27;;;5.80;;
30723;SDS011;17473;52.286;20.930;2023-04-01T20:12:03;12.73;;;7.07;;
30723;SDS011;17473;52.286;20.930;2023-04-01T20:15:03;10.97;;;6.70;;
30723;SDS011;17473;52.286;20.930;2023-04-01T20:18:04;6.60;;;5.30;;
30723;SDS011;17473;52.286;20.930;2023-04-01T20:20:54;7.00;;;5.37;;
30723;SDS011;17473;52.286;20.930;2023-04-01T20:23:45;7.73;;;4.90;;
30723;SDS011;17473;52.286;20.930;2023-04-01T20:26:27;9.57;;;6.07;;
30723;SDS011;17473;52.286;20.930;2023-04-01T20:29:12;7.77;;;5.43;;
30723;SDS011;17473;52.286;20.930;2023-04-01T20:31:59;7.70;;;5.53;;
30723;SDS011;17473;52.286;20.930;2023-04-01T20:37:23;8.97;;;6.00;;
30723;SDS011;17473;52.286;20.930;2023-04-01T21:15:33;7.00;;;3.60;;
30723;SDS011;17473;52.286;20.930;2023-04-01T21:18:54;8.33;;;4.70;;
30723;SDS011;17473;52.286;20.930;2023-04-01T21:28:08;5.83;;;3.43;;
30723;SDS011;17473;52.286;20.930;2023-04-01T21:34:28;6.30;;;4.40;;
30723;SDS011;17473;52.286;20.930;2023-04-01T21:43:17;8.47;;;4.73;;
30723;SDS011;17473;52.286;20.930;2023-04-01T21:48:37;7.07;;;3.93;;
30723;SDS011;17473;52.286;20.930;2023-04-01T21:57:18;7.87;;;5.37;;
30723;SDS011;17473;52.286;20.930;2023-04-01T22:14:05;8.67;;;5.70;;
30723;SDS011;17473;52.286;20.930;2023-04-01T22:16:44;7.90;;;4.87;;
30723;SDS011;17473;52.286;20.930;2023-04-01T22:19:45;10.83;;;4.50;;
30723;SDS011;17473;52.286;20.930;2023-04-01T22:22:49;9.60;;;5.83;;
30723;SDS011;17473;52.286;20.930;2023-04-01T22:31:03;8.63;;;5.50;;
30723;SDS011;17473;52.286;20.930;2023-04-01T22:39:31;8.37;;;4.97;;
30723;SDS011;17473;52.286;20.930;2023-04-01T22:42:48;9.07;;;5.07;;
30723;SDS011;17473;52.286;20.930;2023-04-01T22:45:40;8.57;;;5.10;;
30723;SDS011;17473;52.286;20.930;2023-04-01T22:48:32;7.83;;;5.07;;
30723;SDS011;17473;52.286;20.930;2023-04-01T22:57:05;9.53;;;6.20;;
30723;SDS011;17473;52.286;20.930;2023-04-01T23:00:05;9.93;;;6.60;;
30723;SDS011;17473;52.286;20.930;2023-04-01T23:03:33;9.37;;;5.80;;
30723;SDS011;17473;52.286;20.930;2023-04-01T23:05:47;8.47;;;5.70;;
30723;SDS011;17473;52.286;20.930;2023-04-01T23:11:32;8.20;;;5.50;;
30723;SDS011;17473;52.286;20.930;2023-04-01T23:20:24;6.83;;;4.60;;
30723;SDS011;17473;52.286;20.930;2023-04-01T23:29:21;8.53;;;4.70;;
30723;SDS011;17473;52.286;20.930;2023-04-01T23:32:02;6.23;;;4.27;;
30723;SDS011;17473;52.286;20.930;2023-04-01T23:34:34;5.33;;;4.17;;
30723;SDS011;17473;52.286;20.930;2023-04-01T23:37:08;7.53;;;4.70;;
30723;SDS011;17473;52.286;20.930;2023-04-01T23:39:38;7.03;;;4.97;;
30723;SDS011;17473;52.286;20.930;2023-04-01T23:42:24;5.63;;;4.60;;
30723;SDS011;17473;52.286;20.930;2023-04-01T23:45:05;6.40;;;4.63;;
30723;SDS011;17473;52.286;20.930;2023-04-01T23:47:46;6.47;;;4.87;;
30723;SDS011;17473;52.286;20.930;2023-04-01T23:50:17;7.37;;;5.03;;
30723;SDS011;17473;52.286;20.930;2023-04-01T23:52:52;8.23;;;4.93;;
30723;SDS011;17473;52.286;20.930;2023-04-01T23:55:40;8.80;;;5.83;;
